RYR9CE LFML-LFOT
Flight info
| Callsign | RYR9CE |
|---|---|
| Flight time | N/A |
| Altitude | 34000 |
| Route | FJR DCT GAI/N0465F360 DCT PERIG DCT POI/N0385F180 B19 AMB |
| Aircraft | B738/M-SDE2E3FGHIRWXY/LB1 |
Departure
| Time | 2026-05-06 13:47 |
|---|---|
| Airport | Marseille Provence Airport (LFML) |
Arrival
| Time | N/A |
|---|---|
| Airport | Tours Val de Loire Airport (LFOT) |
| Time | Latitude | Longitude | Altitude | Speed | Heading |
|---|---|---|---|---|---|
| 2026-05-06 13:29 | 43.44224 | 5.21629 | 33 ft | 0 kts | 270° |
| 2026-05-06 13:42 | 43.44223 | 5.21599 | 32 ft | 9 kts | 263° |
| 2026-05-06 13:42 | 43.44187 | 5.21502 | 32 ft | 13 kts | 229° |
| 2026-05-06 13:42 | 43.44120 | 5.21416 | 33 ft | 13 kts | 225° |
| 2026-05-06 13:42 | 43.44042 | 5.21349 | 34 ft | 13 kts | 184° |
| 2026-05-06 13:43 | 43.43969 | 5.21419 | 36 ft | 13 kts | 132° |
| 2026-05-06 13:43 | 43.43921 | 5.21530 | 38 ft | 15 kts | 95° |
| 2026-05-06 13:43 | 43.43974 | 5.21654 | 37 ft | 16 kts | 76° |
| 2026-05-06 13:43 | 43.43936 | 5.21769 | 39 ft | 13 kts | 133° |
| 2026-05-06 13:44 | 43.43893 | 5.21830 | 40 ft | 13 kts | 134° |
| 2026-05-06 13:44 | 43.43831 | 5.21918 | 42 ft | 13 kts | 135° |
| 2026-05-06 13:44 | 43.43767 | 5.22001 | 44 ft | 13 kts | 136° |
| 2026-05-06 13:44 | 43.43696 | 5.22068 | 46 ft | 12 kts | 147° |
| 2026-05-06 13:45 | 43.43623 | 5.22127 | 48 ft | 12 kts | 152° |
| 2026-05-06 13:45 | 43.43481 | 5.22235 | 51 ft | 11 kts | 148° |
| 2026-05-06 13:45 | 43.43409 | 5.22275 | 48 ft | 11 kts | 170° |
| 2026-05-06 13:46 | 43.43342 | 5.22234 | 52 ft | 11 kts | 245° |
| 2026-05-06 13:46 | 43.43330 | 5.22120 | 54 ft | 13 kts | 273° |
| 2026-05-06 13:46 | 43.43340 | 5.21980 | 49 ft | 17 kts | 295° |
| 2026-05-06 13:46 | 43.43470 | 5.21784 | 48 ft | 58 kts | 314° |
| 2026-05-06 13:47 | 43.43938 | 5.21114 | 36 ft | 135 kts | 315° |
| 2026-05-06 13:47 | 43.44700 | 5.20023 | 372 ft | 169 kts | 307° |
| 2026-05-06 13:47 | 43.45471 | 5.18795 | 1341 ft | 167 kts | 302° |
| 2026-05-06 13:47 | 43.46120 | 5.17579 | 2532 ft | 149 kts | 301° |
| 2026-05-06 13:48 | 43.46760 | 5.16387 | 3225 ft | 170 kts | 307° |
| 2026-05-06 13:48 | 43.47301 | 5.14802 | 3631 ft | 197 kts | 272° |
| 2026-05-06 13:48 | 43.46991 | 5.12946 | 4357 ft | 206 kts | 243° |
| 2026-05-06 13:48 | 43.45959 | 5.11514 | 5040 ft | 220 kts | 212° |
| 2026-05-06 13:49 | 43.44506 | 5.10815 | 5913 ft | 223 kts | 200° |
| 2026-05-06 13:49 | 43.42982 | 5.10254 | 6723 ft | 229 kts | 198° |
| 2026-05-06 13:49 | 43.41432 | 5.09693 | 7716 ft | 229 kts | 199° |
| 2026-05-06 13:49 | 43.39917 | 5.09143 | 8742 ft | 229 kts | 199° |
| 2026-05-06 13:50 | 43.38452 | 5.08333 | 9663 ft | 228 kts | 220° |
| 2026-05-06 13:50 | 43.37405 | 5.06597 | 10062 ft | 251 kts | 248° |
| 2026-05-06 13:50 | 43.37113 | 5.04108 | 10320 ft | 282 kts | 273° |
| 2026-05-06 13:50 | 43.37464 | 5.01302 | 10527 ft | 313 kts | 282° |
| 2026-05-06 13:51 | 43.38058 | 4.98288 | 10734 ft | 341 kts | 284° |
| 2026-05-06 13:51 | 43.38749 | 4.95075 | 11256 ft | 355 kts | 285° |
| 2026-05-06 13:51 | 43.39455 | 4.91803 | 12138 ft | 358 kts | 285° |
| 2026-05-06 13:51 | 43.40155 | 4.88497 | 13001 ft | 363 kts | 284° |
| 2026-05-06 13:52 | 43.40849 | 4.85137 | 13806 ft | 368 kts | 284° |
| 2026-05-06 13:52 | 43.41541 | 4.81718 | 14531 ft | 373 kts | 284° |
| 2026-05-06 13:52 | 43.42222 | 4.78312 | 15316 ft | 375 kts | 283° |
| 2026-05-06 13:52 | 43.42910 | 4.74836 | 16090 ft | 378 kts | 283° |
| 2026-05-06 13:53 | 43.43601 | 4.71325 | 16850 ft | 382 kts | 283° |
| 2026-05-06 13:53 | 43.44298 | 4.67765 | 17576 ft | 386 kts | 283° |
| 2026-05-06 13:53 | 43.44999 | 4.64178 | 18288 ft | 390 kts | 283° |
| 2026-05-06 13:53 | 43.45705 | 4.60561 | 18950 ft | 392 kts | 282° |
| 2026-05-06 13:54 | 43.46413 | 4.56922 | 19669 ft | 393 kts | 282° |
| 2026-05-06 13:54 | 43.47122 | 4.53274 | 20259 ft | 397 kts | 282° |
| 2026-05-06 13:54 | 43.47838 | 4.49579 | 20870 ft | 400 kts | 282° |
| 2026-05-06 13:54 | 43.48557 | 4.45867 | 21512 ft | 402 kts | 281° |
| 2026-05-06 13:55 | 43.49277 | 4.42144 | 22145 ft | 404 kts | 281° |
| 2026-05-06 13:55 | 43.50002 | 4.38387 | 22733 ft | 406 kts | 281° |
| 2026-05-06 13:55 | 43.50719 | 4.34660 | 23293 ft | 409 kts | 281° |
| 2026-05-06 13:55 | 43.51450 | 4.30858 | 23784 ft | 411 kts | 280° |
| 2026-05-06 13:56 | 43.52182 | 4.27036 | 24240 ft | 413 kts | 280° |
| 2026-05-06 13:56 | 43.52917 | 4.23200 | 24685 ft | 415 kts | 280° |
| 2026-05-06 13:56 | 43.53655 | 4.19339 | 25135 ft | 418 kts | 280° |
| 2026-05-06 13:56 | 43.54397 | 4.15438 | 25379 ft | 425 kts | 281° |
| 2026-05-06 13:57 | 43.55152 | 4.11470 | 25710 ft | 429 kts | 281° |
| 2026-05-06 13:57 | 43.55908 | 4.07493 | 26226 ft | 428 kts | 280° |
| 2026-05-06 13:57 | 43.56664 | 4.03515 | 26643 ft | 430 kts | 281° |
| 2026-05-06 13:57 | 43.57421 | 3.99513 | 27024 ft | 432 kts | 280° |
| 2026-05-06 13:58 | 43.58176 | 3.95498 | 27423 ft | 433 kts | 280° |
| 2026-05-06 13:58 | 43.58925 | 3.91464 | 27923 ft | 432 kts | 279° |
| 2026-05-06 13:58 | 43.59661 | 3.87476 | 28588 ft | 427 kts | 279° |
| 2026-05-06 13:58 | 43.60388 | 3.83531 | 29324 ft | 421 kts | 278° |
| 2026-05-06 13:59 | 43.61105 | 3.79628 | 30022 ft | 418 kts | 278° |
| 2026-05-06 13:59 | 43.61816 | 3.75742 | 30377 ft | 419 kts | 279° |
| 2026-05-06 13:59 | 43.62529 | 3.71830 | 30645 ft | 422 kts | 279° |
| 2026-05-06 13:59 | 43.63245 | 3.67892 | 30994 ft | 422 kts | 279° |
| 2026-05-06 14:00 | 43.63960 | 3.63967 | 31417 ft | 421 kts | 279° |
| 2026-05-06 14:00 | 43.64672 | 3.60049 | 31843 ft | 420 kts | 279° |
| 2026-05-06 14:00 | 43.65373 | 3.56185 | 32195 ft | 421 kts | 279° |
| 2026-05-06 14:00 | 43.66094 | 3.52205 | 32551 ft | 421 kts | 279° |
| 2026-05-06 14:01 | 43.66793 | 3.48335 | 32938 ft | 421 kts | 279° |
| 2026-05-06 14:01 | 43.67501 | 3.44406 | 33315 ft | 421 kts | 279° |
| 2026-05-06 14:01 | 43.68208 | 3.40480 | 33693 ft | 422 kts | 279° |
| 2026-05-06 14:01 | 43.68916 | 3.36533 | 34033 ft | 422 kts | 279° |
| 2026-05-06 14:02 | 43.69620 | 3.32604 | 34315 ft | 423 kts | 279° |
| 2026-05-06 14:02 | 43.70328 | 3.28642 | 34564 ft | 424 kts | 279° |
| 2026-05-06 14:02 | 43.71034 | 3.24680 | 34834 ft | 425 kts | 279° |
| 2026-05-06 14:02 | 43.71739 | 3.20724 | 35163 ft | 424 kts | 279° |
| 2026-05-06 14:03 | 43.72444 | 3.16754 | 35457 ft | 425 kts | 279° |
| 2026-05-06 14:03 | 43.73148 | 3.12777 | 35718 ft | 426 kts | 279° |
| 2026-05-06 14:03 | 43.73852 | 3.08794 | 35930 ft | 428 kts | 279° |
| 2026-05-06 14:03 | 43.74562 | 3.04765 | 35937 ft | 433 kts | 279° |
| 2026-05-06 14:04 | 43.75986 | 2.96670 | 35938 ft | 432 kts | 280° |
| 2026-05-06 14:04 | 43.77383 | 2.88706 | 35950 ft | 426 kts | 279° |
| 2026-05-06 14:05 | 43.78772 | 2.80733 | 35957 ft | 426 kts | 279° |
| 2026-05-06 14:05 | 43.80155 | 2.72758 | 35974 ft | 426 kts | 280° |
| 2026-05-06 14:06 | 43.81535 | 2.64765 | 35971 ft | 427 kts | 280° |
| 2026-05-06 14:06 | 43.82913 | 2.56749 | 35977 ft | 428 kts | 280° |
| 2026-05-06 14:07 | 43.84289 | 2.48708 | 35972 ft | 430 kts | 280° |
| 2026-05-06 14:07 | 43.85664 | 2.40639 | 35979 ft | 430 kts | 280° |
| 2026-05-06 14:08 | 43.87035 | 2.32557 | 35976 ft | 430 kts | 280° |
| 2026-05-06 14:08 | 43.88400 | 2.24469 | 35973 ft | 431 kts | 280° |
| 2026-05-06 14:09 | 43.89763 | 2.16361 | 35981 ft | 432 kts | 280° |
| 2026-05-06 14:09 | 43.91124 | 2.08218 | 35956 ft | 433 kts | 280° |
| 2026-05-06 14:10 | 43.92472 | 2.00122 | 35958 ft | 433 kts | 280° |
| 2026-05-06 14:10 | 43.93821 | 1.91987 | 35941 ft | 433 kts | 280° |
| 2026-05-06 14:11 | 43.95877 | 1.84144 | 35959 ft | 441 kts | 302° |
| 2026-05-06 14:11 | 43.97907 | 1.80922 | 35928 ft | 448 kts | 314° |
| 2026-05-06 14:11 | 44.00495 | 1.78439 | 35945 ft | 455 kts | 327° |
| 2026-05-06 14:12 | 44.06160 | 1.74399 | 35931 ft | 459 kts | 330° |
| 2026-05-06 14:12 | 44.11843 | 1.70461 | 35931 ft | 458 kts | 329° |
| 2026-05-06 14:13 | 44.17525 | 1.66425 | 35938 ft | 458 kts | 329° |
| 2026-05-06 14:13 | 44.23186 | 1.62330 | 35942 ft | 459 kts | 329° |
| 2026-05-06 14:14 | 44.28870 | 1.58191 | 35930 ft | 462 kts | 329° |
| 2026-05-06 14:14 | 44.34591 | 1.54017 | 35913 ft | 463 kts | 329° |
| 2026-05-06 14:15 | 44.40300 | 1.49847 | 35923 ft | 462 kts | 329° |
| 2026-05-06 14:15 | 44.45988 | 1.45684 | 35927 ft | 461 kts | 329° |
| 2026-05-06 14:16 | 44.51661 | 1.41523 | 35914 ft | 459 kts | 329° |
| 2026-05-06 14:16 | 44.57300 | 1.37378 | 35925 ft | 457 kts | 329° |
| 2026-05-06 14:17 | 44.62919 | 1.33237 | 35920 ft | 455 kts | 330° |
| 2026-05-06 14:17 | 44.68463 | 1.29143 | 35911 ft | 452 kts | 329° |
| 2026-05-06 14:18 | 44.74030 | 1.25023 | 35911 ft | 451 kts | 329° |
| 2026-05-06 14:18 | 44.79580 | 1.20906 | 35915 ft | 451 kts | 329° |
| 2026-05-06 14:19 | 44.85145 | 1.16769 | 35910 ft | 452 kts | 329° |
| 2026-05-06 14:19 | 44.90718 | 1.12616 | 35912 ft | 453 kts | 330° |
| 2026-05-06 14:20 | 44.96300 | 1.08449 | 35908 ft | 454 kts | 330° |
| 2026-05-06 14:20 | 45.01892 | 1.04264 | 35923 ft | 455 kts | 330° |
| 2026-05-06 14:21 | 45.07458 | 1.00090 | 35915 ft | 456 kts | 330° |
| 2026-05-06 14:21 | 45.13143 | 0.96096 | 35898 ft | 458 kts | 338° |
| 2026-05-06 14:22 | 45.19234 | 0.93333 | 35923 ft | 459 kts | 341° |
| 2026-05-06 14:22 | 45.25355 | 0.90723 | 35910 ft | 459 kts | 341° |
| 2026-05-06 14:23 | 45.31460 | 0.88053 | 35911 ft | 459 kts | 341° |
| 2026-05-06 14:23 | 45.37552 | 0.85329 | 35914 ft | 458 kts | 340° |
| 2026-05-06 14:24 | 45.40568 | 0.83969 | 35665 ft | 461 kts | 341° |
| 2026-05-06 14:24 | 45.43611 | 0.82595 | 35374 ft | 457 kts | 341° |
| 2026-05-06 14:24 | 45.46633 | 0.81229 | 35084 ft | 455 kts | 341° |
| 2026-05-06 14:24 | 45.49664 | 0.79858 | 34519 ft | 457 kts | 341° |
| 2026-05-06 14:25 | 45.52684 | 0.78490 | 34089 ft | 455 kts | 341° |
| 2026-05-06 14:25 | 45.55693 | 0.77127 | 33561 ft | 452 kts | 341° |
| 2026-05-06 14:25 | 45.58686 | 0.75769 | 33039 ft | 450 kts | 341° |
| 2026-05-06 14:25 | 45.61655 | 0.74422 | 32495 ft | 447 kts | 342° |
| 2026-05-06 14:26 | 45.64608 | 0.73079 | 31972 ft | 443 kts | 342° |
| 2026-05-06 14:26 | 45.67535 | 0.71747 | 31456 ft | 441 kts | 342° |
| 2026-05-06 14:26 | 45.70454 | 0.70418 | 30955 ft | 438 kts | 342° |
| 2026-05-06 14:26 | 45.73371 | 0.69087 | 30466 ft | 441 kts | 343° |
| 2026-05-06 14:27 | 45.76302 | 0.67750 | 29980 ft | 444 kts | 343° |
| 2026-05-06 14:27 | 45.79248 | 0.66404 | 29409 ft | 444 kts | 343° |
| 2026-05-06 14:27 | 45.82161 | 0.65071 | 28836 ft | 445 kts | 343° |
| 2026-05-06 14:27 | 45.85119 | 0.63717 | 28281 ft | 446 kts | 343° |
| 2026-05-06 14:28 | 45.88078 | 0.62361 | 27735 ft | 447 kts | 343° |
| 2026-05-06 14:28 | 45.91044 | 0.60999 | 27206 ft | 449 kts | 343° |
| 2026-05-06 14:28 | 45.94031 | 0.59627 | 26673 ft | 451 kts | 343° |
| 2026-05-06 14:28 | 45.97030 | 0.58247 | 26148 ft | 453 kts | 343° |
| 2026-05-06 14:29 | 46.00039 | 0.56861 | 25640 ft | 455 kts | 343° |
| 2026-05-06 14:29 | 46.03063 | 0.55467 | 25143 ft | 457 kts | 342° |
| 2026-05-06 14:29 | 46.06084 | 0.54072 | 24654 ft | 457 kts | 342° |
| 2026-05-06 14:29 | 46.09100 | 0.52677 | 24164 ft | 451 kts | 342° |
| 2026-05-06 14:30 | 46.12070 | 0.51303 | 23688 ft | 445 kts | 342° |
| 2026-05-06 14:30 | 46.14018 | 0.50401 | 23355 ft | 444 kts | 342° |
| 2026-05-06 14:30 | 46.16950 | 0.49041 | 22798 ft | 441 kts | 342° |
| 2026-05-06 14:30 | 46.19856 | 0.47693 | 22253 ft | 438 kts | 342° |
| 2026-05-06 14:31 | 46.22755 | 0.46346 | 21717 ft | 436 kts | 342° |
| 2026-05-06 14:31 | 46.25644 | 0.45003 | 21200 ft | 434 kts | 342° |
| 2026-05-06 14:31 | 46.28515 | 0.43666 | 20688 ft | 432 kts | 342° |
| 2026-05-06 14:31 | 46.30920 | 0.42545 | 20257 ft | 430 kts | 341° |
| 2026-05-06 14:32 | 46.33742 | 0.41228 | 19745 ft | 421 kts | 342° |
| 2026-05-06 14:32 | 46.36464 | 0.39957 | 19261 ft | 411 kts | 341° |
| 2026-05-06 14:32 | 46.39148 | 0.38703 | 18770 ft | 401 kts | 341° |
| 2026-05-06 14:32 | 46.41778 | 0.37472 | 18299 ft | 393 kts | 340° |
| 2026-05-06 14:33 | 46.44321 | 0.36280 | 17787 ft | 386 kts | 341° |
| 2026-05-06 14:33 | 46.46859 | 0.35089 | 17237 ft | 381 kts | 341° |
| 2026-05-06 14:33 | 46.49363 | 0.33913 | 16714 ft | 376 kts | 340° |
| 2026-05-06 14:33 | 46.51841 | 0.32750 | 16197 ft | 372 kts | 341° |
| 2026-05-06 14:34 | 46.54294 | 0.31595 | 15696 ft | 370 kts | 341° |
| 2026-05-06 14:34 | 46.56796 | 0.30773 | 15180 ft | 370 kts | 356° |
| 2026-05-06 14:34 | 46.59349 | 0.31213 | 14701 ft | 371 kts | 15° |
| 2026-05-06 14:34 | 46.61683 | 0.32778 | 14249 ft | 369 kts | 30° |
| 2026-05-06 14:35 | 46.63862 | 0.34725 | 13764 ft | 367 kts | 31° |
| 2026-05-06 14:35 | 46.66020 | 0.36691 | 13242 ft | 361 kts | 30° |
| 2026-05-06 14:35 | 46.68105 | 0.38598 | 12686 ft | 347 kts | 31° |
| 2026-05-06 14:35 | 46.70113 | 0.40429 | 12151 ft | 334 kts | 30° |
| 2026-05-06 14:36 | 46.72056 | 0.42189 | 11641 ft | 324 kts | 31° |
| 2026-05-06 14:36 | 46.73949 | 0.43897 | 11124 ft | 316 kts | 30° |
| 2026-05-06 14:36 | 46.75797 | 0.45559 | 10631 ft | 308 kts | 30° |
| 2026-05-06 14:36 | 46.77584 | 0.47164 | 10146 ft | 302 kts | 29° |
| 2026-05-06 14:37 | 46.79319 | 0.48718 | 9674 ft | 301 kts | 30° |
| 2026-05-06 14:37 | 46.81089 | 0.50305 | 9142 ft | 296 kts | 29° |
| 2026-05-06 14:37 | 46.82831 | 0.51868 | 8604 ft | 291 kts | 29° |
| 2026-05-06 14:37 | 46.84544 | 0.53408 | 8088 ft | 286 kts | 30° |
| 2026-05-06 14:38 | 46.86228 | 0.54922 | 7583 ft | 282 kts | 30° |
| 2026-05-06 14:38 | 46.87887 | 0.56413 | 7084 ft | 278 kts | 30° |
| 2026-05-06 14:38 | 46.89526 | 0.57887 | 6589 ft | 275 kts | 30° |
| 2026-05-06 14:38 | 46.91142 | 0.59342 | 6087 ft | 271 kts | 30° |
| 2026-05-06 14:39 | 46.92740 | 0.60778 | 5582 ft | 267 kts | 30° |
| 2026-05-06 14:39 | 46.94329 | 0.62208 | 5132 ft | 271 kts | 30° |
| 2026-05-06 14:39 | 46.95924 | 0.63649 | 5049 ft | 267 kts | 32° |
| 2026-05-06 14:39 | 46.97471 | 0.65120 | 5012 ft | 262 kts | 30° |
| 2026-05-06 14:40 | 46.99017 | 0.66478 | 4978 ft | 254 kts | 30° |
| 2026-05-06 14:40 | 47.00556 | 0.67603 | 4965 ft | 241 kts | 13° |
| 2026-05-06 14:40 | 47.02170 | 0.67628 | 4995 ft | 228 kts | 352° |
| 2026-05-06 14:40 | 47.03735 | 0.67288 | 4992 ft | 227 kts | 353° |
| 2026-05-06 14:41 | 47.05278 | 0.66964 | 4997 ft | 226 kts | 353° |
| 2026-05-06 14:41 | 47.06689 | 0.66670 | 5005 ft | 227 kts | 353° |
| 2026-05-06 14:41 | 47.08252 | 0.66345 | 4962 ft | 229 kts | 353° |
| 2026-05-06 14:41 | 47.09832 | 0.66010 | 4690 ft | 233 kts | 353° |
| 2026-05-06 14:42 | 47.11430 | 0.65667 | 4420 ft | 232 kts | 352° |
| 2026-05-06 14:42 | 47.13000 | 0.65277 | 4159 ft | 231 kts | 352° |
| 2026-05-06 14:42 | 47.14580 | 0.64912 | 3902 ft | 229 kts | 352° |
| 2026-05-06 14:42 | 47.16153 | 0.64546 | 3643 ft | 228 kts | 353° |
| 2026-05-06 14:43 | 47.17715 | 0.64170 | 3392 ft | 227 kts | 353° |
| 2026-05-06 14:43 | 47.19267 | 0.63783 | 3137 ft | 226 kts | 353° |
| 2026-05-06 14:43 | 47.20807 | 0.63549 | 3021 ft | 218 kts | 8° |
| 2026-05-06 14:43 | 47.22239 | 0.64043 | 3019 ft | 205 kts | 17° |
| 2026-05-06 14:44 | 47.23566 | 0.64566 | 3007 ft | 192 kts | 17° |
| 2026-05-06 14:44 | 47.24845 | 0.65100 | 3012 ft | 190 kts | 18° |
| 2026-05-06 14:44 | 47.26119 | 0.65635 | 2998 ft | 191 kts | 18° |
| 2026-05-06 14:45 | 47.28671 | 0.66703 | 2781 ft | 187 kts | 17° |
| 2026-05-06 14:45 | 47.29933 | 0.67231 | 2672 ft | 190 kts | 17° |
| 2026-05-06 14:45 | 47.31202 | 0.67767 | 2547 ft | 185 kts | 19° |
| 2026-05-06 14:45 | 47.32379 | 0.68385 | 2202 ft | 178 kts | 18° |
| 2026-05-06 14:46 | 47.33572 | 0.68894 | 1777 ft | 178 kts | 15° |
| 2026-05-06 14:46 | 47.34729 | 0.69300 | 1768 ft | 164 kts | 13° |
| 2026-05-06 14:46 | 47.35834 | 0.69703 | 1636 ft | 157 kts | 14° |
| 2026-05-06 14:46 | 47.36843 | 0.70095 | 1613 ft | 147 kts | 16° |
| 2026-05-06 14:47 | 47.37766 | 0.70522 | 1618 ft | 125 kts | 18° |
| 2026-05-06 14:47 | 47.38592 | 0.70870 | 1425 ft | 124 kts | 16° |
| 2026-05-06 14:47 | 47.39435 | 0.71203 | 1465 ft | 141 kts | 14° |
| 2026-05-06 14:47 | 47.40572 | 0.71605 | 1785 ft | 202 kts | 15° |
| 2026-05-06 14:48 | 47.42072 | 0.72163 | 1935 ft | 226 kts | 15° |
| 2026-05-06 14:48 | 47.43576 | 0.72772 | 2089 ft | 227 kts | 15° |
| 2026-05-06 14:48 | 47.45158 | 0.73425 | 2635 ft | 245 kts | 16° |
| 2026-05-06 14:48 | 47.46792 | 0.74086 | 3116 ft | 245 kts | 16° |
| 2026-05-06 14:49 | 47.48461 | 0.74738 | 3646 ft | 248 kts | 16° |
| 2026-05-06 14:49 | 47.50138 | 0.75386 | 4186 ft | 250 kts | 16° |
| 2026-05-06 14:49 | 47.51837 | 0.76027 | 4703 ft | 253 kts | 12° |
| 2026-05-06 14:49 | 47.53584 | 0.75787 | 5198 ft | 261 kts | 338° |
| 2026-05-06 14:50 | 47.54957 | 0.74026 | 5712 ft | 268 kts | 306° |
| 2026-05-06 14:50 | 47.55692 | 0.71471 | 6266 ft | 274 kts | 285° |
| 2026-05-06 14:50 | 47.55730 | 0.68624 | 6759 ft | 282 kts | 262° |
| 2026-05-06 14:50 | 47.54950 | 0.65967 | 7262 ft | 286 kts | 234° |
| 2026-05-06 14:51 | 47.53506 | 0.64004 | 7739 ft | 285 kts | 215° |
| 2026-05-06 14:51 | 47.51856 | 0.62391 | 8255 ft | 287 kts | 214° |
| 2026-05-06 14:51 | 47.50156 | 0.60781 | 8787 ft | 291 kts | 214° |
| 2026-05-06 14:51 | 47.48445 | 0.59156 | 8996 ft | 294 kts | 214° |
| 2026-05-06 14:52 | 47.46732 | 0.57512 | 8989 ft | 292 kts | 214° |
| 2026-05-06 14:52 | 47.45029 | 0.55872 | 8998 ft | 291 kts | 214° |
| 2026-05-06 14:52 | 47.43337 | 0.54233 | 8999 ft | 292 kts | 215° |
| 2026-05-06 14:52 | 47.41651 | 0.52586 | 9210 ft | 286 kts | 215° |
| 2026-05-06 14:53 | 47.39991 | 0.50928 | 9768 ft | 291 kts | 220° |
| 2026-05-06 14:53 | 47.38710 | 0.48664 | 10261 ft | 288 kts | 248° |
| 2026-05-06 14:53 | 47.38258 | 0.45830 | 10774 ft | 284 kts | 271° |
| 2026-05-06 14:53 | 47.38667 | 0.43001 | 11271 ft | 285 kts | 296° |
| 2026-05-06 14:54 | 47.39857 | 0.40675 | 11781 ft | 289 kts | 321° |
| 2026-05-06 14:54 | 47.41614 | 0.39305 | 12298 ft | 291 kts | 345° |
| 2026-05-06 14:54 | 47.43620 | 0.39215 | 12818 ft | 292 kts | 10° |
| 2026-05-06 14:54 | 47.45513 | 0.40356 | 13368 ft | 300 kts | 30° |
| 2026-05-06 14:55 | 47.47273 | 0.42054 | 13895 ft | 305 kts | 32° |
| 2026-05-06 14:55 | 47.49053 | 0.43826 | 14381 ft | 312 kts | 32° |
| 2026-05-06 14:55 | 47.50865 | 0.45607 | 14869 ft | 312 kts | 32° |
| 2026-05-06 14:55 | 47.52640 | 0.47457 | 14976 ft | 313 kts | 42° |
| 2026-05-06 14:56 | 47.53816 | 0.50157 | 15010 ft | 319 kts | 72° |
| 2026-05-06 14:56 | 47.53966 | 0.53432 | 15013 ft | 323 kts | 101° |
| 2026-05-06 14:56 | 47.53047 | 0.56407 | 15001 ft | 320 kts | 131° |
| 2026-05-06 14:56 | 47.51304 | 0.58378 | 15012 ft | 316 kts | 159° |
| 2026-05-06 14:57 | 47.49181 | 0.58881 | 15353 ft | 309 kts | 187° |
| 2026-05-06 14:57 | 47.47138 | 0.57954 | 15741 ft | 311 kts | 211° |
| 2026-05-06 14:57 | 47.45307 | 0.56220 | 16149 ft | 313 kts | 216° |